sensor_id;sensor_type;location;lat;lon;timestamp;P1;durP1;ratioP1;P2;durP2;ratioP2
5638;SDS011;2841;44.526;11.360;2022-12-13T00:01:45;60.17;;;25.73;;
5638;SDS011;2841;44.526;11.360;2022-12-13T00:04:14;49.87;;;23.87;;
5638;SDS011;2841;44.526;11.360;2022-12-13T00:06:41;49.50;;;23.20;;
5638;SDS011;2841;44.526;11.360;2022-12-13T00:09:09;61.17;;;26.00;;
5638;SDS011;2841;44.526;11.360;2022-12-13T00:11:38;55.73;;;24.83;;
5638;SDS011;2841;44.526;11.360;2022-12-13T00:14:06;70.17;;;26.83;;
5638;SDS011;2841;44.526;11.360;2022-12-13T00:16:33;59.47;;;23.53;;
5638;SDS011;2841;44.526;11.360;2022-12-13T00:19:00;55.00;;;26.70;;
5638;SDS011;2841;44.526;11.360;2022-12-13T00:21:28;61.57;;;28.00;;
5638;SDS011;2841;44.526;11.360;2022-12-13T00:23:56;46.23;;;21.67;;
5638;SDS011;2841;44.526;11.360;2022-12-13T00:26:25;59.63;;;23.77;;
5638;SDS011;2841;44.526;11.360;2022-12-13T00:28:53;53.07;;;24.50;;
5638;SDS011;2841;44.526;11.360;2022-12-13T00:31:22;51.30;;;24.40;;
5638;SDS011;2841;44.526;11.360;2022-12-13T00:33:50;57.27;;;23.77;;
5638;SDS011;2841;44.526;11.360;2022-12-13T00:36:17;51.77;;;23.73;;
5638;SDS011;2841;44.526;11.360;2022-12-13T00:38:44;58.43;;;28.00;;
5638;SDS011;2841;44.526;11.360;2022-12-13T00:41:12;53.90;;;24.73;;
5638;SDS011;2841;44.526;11.360;2022-12-13T00:43:41;66.33;;;27.67;;
5638;SDS011;2841;44.526;11.360;2022-12-13T00:46:10;77.43;;;29.93;;
5638;SDS011;2841;44.526;11.360;2022-12-13T00:48:41;58.13;;;27.17;;
5638;SDS011;2841;44.526;11.360;2022-12-13T00:51:09;61.57;;;26.67;;
5638;SDS011;2841;44.526;11.360;2022-12-13T00:53:37;51.23;;;25.57;;
5638;SDS011;2841;44.526;11.360;2022-12-13T00:56:08;62.37;;;27.60;;
5638;SDS011;2841;44.526;11.360;2022-12-13T00:58:36;50.87;;;23.17;;
5638;SDS011;2841;44.526;11.360;2022-12-13T01:01:03;57.27;;;22.33;;
5638;SDS011;2841;44.526;11.360;2022-12-13T01:03:32;50.40;;;21.73;;
5638;SDS011;2841;44.526;11.360;2022-12-13T01:06:06;63.93;;;26.20;;
5638;SDS011;2841;44.526;11.360;2022-12-13T01:08:34;59.97;;;26.80;;
5638;SDS011;2841;44.526;11.360;2022-12-13T01:11:02;61.37;;;26.70;;
5638;SDS011;2841;44.526;11.360;2022-12-13T01:13:29;58.47;;;29.30;;
5638;SDS011;2841;44.526;11.360;2022-12-13T01:15:56;58.33;;;25.30;;
5638;SDS011;2841;44.526;11.360;2022-12-13T01:18:23;66.70;;;26.00;;
5638;SDS011;2841;44.526;11.360;2022-12-13T01:20:56;70.37;;;26.87;;
5638;SDS011;2841;44.526;11.360;2022-12-13T01:23:25;51.10;;;25.70;;
5638;SDS011;2841;44.526;11.360;2022-12-13T01:25:53;54.17;;;24.27;;
5638;SDS011;2841;44.526;11.360;2022-12-13T01:28:20;66.13;;;27.10;;
5638;SDS011;2841;44.526;11.360;2022-12-13T01:30:54;69.43;;;27.80;;
5638;SDS011;2841;44.526;11.360;2022-12-13T01:33:22;53.53;;;25.00;;
5638;SDS011;2841;44.526;11.360;2022-12-13T01:35:49;57.60;;;24.87;;
5638;SDS011;2841;44.526;11.360;2022-12-13T01:38:17;75.77;;;27.17;;
5638;SDS011;2841;44.526;11.360;2022-12-13T01:40:46;56.37;;;26.33;;
5638;SDS011;2841;44.526;11.360;2022-12-13T01:43:15;68.70;;;26.33;;
5638;SDS011;2841;44.526;11.360;2022-12-13T01:45:43;57.97;;;25.50;;
5638;SDS011;2841;44.526;11.360;2022-12-13T01:48:11;66.07;;;26.83;;
5638;SDS011;2841;44.526;11.360;2022-12-13T01:50:42;81.27;;;29.40;;
5638;SDS011;2841;44.526;11.360;2022-12-13T01:53:14;64.70;;;25.00;;
5638;SDS011;2841;44.526;11.360;2022-12-13T01:55:48;60.93;;;26.17;;
5638;SDS011;2841;44.526;11.360;2022-12-13T01:58:18;62.50;;;23.37;;
5638;SDS011;2841;44.526;11.360;2022-12-13T02:00:46;64.37;;;27.97;;
5638;SDS011;2841;44.526;11.360;2022-12-13T02:03:15;44.53;;;19.30;;
5638;SDS011;2841;44.526;11.360;2022-12-13T02:05:44;74.03;;;26.60;;
5638;SDS011;2841;44.526;11.360;2022-12-13T02:08:17;65.17;;;26.47;;
5638;SDS011;2841;44.526;11.360;2022-12-13T02:10:45;61.20;;;26.23;;
5638;SDS011;2841;44.526;11.360;2022-12-13T02:13:14;67.90;;;27.83;;
5638;SDS011;2841;44.526;11.360;2022-12-13T02:15:42;60.93;;;26.37;;
5638;SDS011;2841;44.526;11.360;2022-12-13T02:18:19;68.63;;;28.80;;
5638;SDS011;2841;44.526;11.360;2022-12-13T02:21:10;58.17;;;26.87;;
5638;SDS011;2841;44.526;11.360;2022-12-13T02:23:59;68.47;;;28.70;;
5638;SDS011;2841;44.526;11.360;2022-12-13T02:26:44;55.90;;;28.53;;
5638;SDS011;2841;44.526;11.360;2022-12-13T02:39:48;89.97;;;32.23;;
5638;SDS011;2841;44.526;11.360;2022-12-13T02:42:22;63.33;;;28.57;;
5638;SDS011;2841;44.526;11.360;2022-12-13T02:44:55;78.53;;;29.20;;
5638;SDS011;2841;44.526;11.360;2022-12-13T02:47:26;69.57;;;29.93;;
5638;SDS011;2841;44.526;11.360;2022-12-13T02:49:57;62.20;;;31.00;;
5638;SDS011;2841;44.526;11.360;2022-12-13T02:52:26;75.57;;;31.53;;
5638;SDS011;2841;44.526;11.360;2022-12-13T02:54:57;67.07;;;29.57;;
5638;SDS011;2841;44.526;11.360;2022-12-13T02:57:26;86.00;;;31.83;;
5638;SDS011;2841;44.526;11.360;2022-12-13T02:59:55;60.83;;;30.80;;
5638;SDS011;2841;44.526;11.360;2022-12-13T03:02:23;59.00;;;27.67;;
5638;SDS011;2841;44.526;11.360;2022-12-13T03:04:59;78.63;;;27.07;;
5638;SDS011;2841;44.526;11.360;2022-12-13T03:07:56;65.57;;;27.73;;
5638;SDS011;2841;44.526;11.360;2022-12-13T03:10:40;70.27;;;31.30;;
5638;SDS011;2841;44.526;11.360;2022-12-13T03:13:16;63.13;;;26.10;;
5638;SDS011;2841;44.526;11.360;2022-12-13T03:16:13;80.47;;;27.73;;
5638;SDS011;2841;44.526;11.360;2022-12-13T03:18:56;66.70;;;26.07;;
5638;SDS011;2841;44.526;11.360;2022-12-13T03:21:25;69.83;;;28.50;;
5638;SDS011;2841;44.526;11.360;2022-12-13T03:23:52;78.27;;;26.87;;
5638;SDS011;2841;44.526;11.360;2022-12-13T03:26:22;76.07;;;25.90;;
5638;SDS011;2841;44.526;11.360;2022-12-13T03:28:51;61.83;;;26.20;;
5638;SDS011;2841;44.526;11.360;2022-12-13T03:31:20;61.70;;;26.77;;
5638;SDS011;2841;44.526;11.360;2022-12-13T03:33:48;65.13;;;26.93;;
5638;SDS011;2841;44.526;11.360;2022-12-13T03:36:15;68.97;;;26.53;;
5638;SDS011;2841;44.526;11.360;2022-12-13T03:38:44;54.37;;;25.77;;
5638;SDS011;2841;44.526;11.360;2022-12-13T03:41:12;46.97;;;21.73;;
5638;SDS011;2841;44.526;11.360;2022-12-13T03:43:43;63.10;;;27.90;;
5638;SDS011;2841;44.526;11.360;2022-12-13T03:46:11;58.23;;;25.87;;
5638;SDS011;2841;44.526;11.360;2022-12-13T03:48:38;68.97;;;24.20;;
5638;SDS011;2841;44.526;11.360;2022-12-13T03:51:05;48.93;;;23.37;;
5638;SDS011;2841;44.526;11.360;2022-12-13T03:53:32;58.70;;;27.23;;
5638;SDS011;2841;44.526;11.360;2022-12-13T03:56:00;58.43;;;26.90;;
5638;SDS011;2841;44.526;11.360;2022-12-13T03:58:28;65.83;;;28.87;;
5638;SDS011;2841;44.526;11.360;2022-12-13T04:00:57;64.27;;;27.07;;
5638;SDS011;2841;44.526;11.360;2022-12-13T04:03:23;65.57;;;28.97;;
5638;SDS011;2841;44.526;11.360;2022-12-13T04:05:51;54.80;;;24.07;;
5638;SDS011;2841;44.526;11.360;2022-12-13T04:08:18;63.77;;;28.30;;
5638;SDS011;2841;44.526;11.360;2022-12-13T04:10:44;55.13;;;25.60;;
5638;SDS011;2841;44.526;11.360;2022-12-13T04:13:12;60.03;;;29.33;;
5638;SDS011;2841;44.526;11.360;2022-12-13T04:15:57;58.00;;;24.80;;
5638;SDS011;2841;44.526;11.360;2022-12-13T04:18:24;60.97;;;24.97;;
5638;SDS011;2841;44.526;11.360;2022-12-13T04:20:51;66.80;;;27.90;;
5638;SDS011;2841;44.526;11.360;2022-12-13T04:23:19;57.90;;;26.20;;
5638;SDS011;2841;44.526;11.360;2022-12-13T04:25:46;79.00;;;29.10;;
5638;SDS011;2841;44.526;11.360;2022-12-13T04:28:12;67.97;;;25.77;;
5638;SDS011;2841;44.526;11.360;2022-12-13T04:30:39;60.03;;;29.00;;
5638;SDS011;2841;44.526;11.360;2022-12-13T04:33:08;65.97;;;27.50;;
5638;SDS011;2841;44.526;11.360;2022-12-13T04:35:35;67.47;;;27.13;;
5638;SDS011;2841;44.526;11.360;2022-12-13T04:38:02;52.70;;;25.97;;
5638;SDS011;2841;44.526;11.360;2022-12-13T04:40:29;56.13;;;27.17;;
5638;SDS011;2841;44.526;11.360;2022-12-13T04:42:56;57.33;;;24.47;;
5638;SDS011;2841;44.526;11.360;2022-12-13T04:45:23;54.30;;;26.50;;
5638;SDS011;2841;44.526;11.360;2022-12-13T04:47:50;58.07;;;27.87;;
5638;SDS011;2841;44.526;11.360;2022-12-13T04:50:19;51.57;;;23.83;;
5638;SDS011;2841;44.526;11.360;2022-12-13T04:52:46;58.30;;;26.00;;
5638;SDS011;2841;44.526;11.360;2022-12-13T04:55:13;55.20;;;24.43;;
5638;SDS011;2841;44.526;11.360;2022-12-13T04:57:40;51.10;;;25.10;;
5638;SDS011;2841;44.526;11.360;2022-12-13T05:00:08;54.67;;;25.10;;
5638;SDS011;2841;44.526;11.360;2022-12-13T05:02:38;45.47;;;24.87;;
5638;SDS011;2841;44.526;11.360;2022-12-13T05:05:06;44.10;;;22.87;;
5638;SDS011;2841;44.526;11.360;2022-12-13T05:07:35;46.37;;;22.83;;
5638;SDS011;2841;44.526;11.360;2022-12-13T05:10:03;47.07;;;20.27;;
5638;SDS011;2841;44.526;11.360;2022-12-13T05:12:31;47.70;;;24.47;;
5638;SDS011;2841;44.526;11.360;2022-12-13T05:14:58;53.70;;;22.03;;
5638;SDS011;2841;44.526;11.360;2022-12-13T05:17:24;54.23;;;25.60;;
5638;SDS011;2841;44.526;11.360;2022-12-13T05:19:51;40.77;;;20.27;;
5638;SDS011;2841;44.526;11.360;2022-12-13T05:22:18;50.83;;;22.73;;
5638;SDS011;2841;44.526;11.360;2022-12-13T05:24:47;45.20;;;19.80;;
5638;SDS011;2841;44.526;11.360;2022-12-13T05:27:14;47.30;;;21.43;;
5638;SDS011;2841;44.526;11.360;2022-12-13T05:29:41;40.47;;;20.83;;
5638;SDS011;2841;44.526;11.360;2022-12-13T05:32:08;47.40;;;21.57;;
5638;SDS011;2841;44.526;11.360;2022-12-13T05:34:35;39.07;;;18.83;;
5638;SDS011;2841;44.526;11.360;2022-12-13T05:37:02;61.23;;;20.47;;
5638;SDS011;2841;44.526;11.360;2022-12-13T05:39:29;41.00;;;19.90;;
5638;SDS011;2841;44.526;11.360;2022-12-13T05:41:58;32.90;;;17.87;;
5638;SDS011;2841;44.526;11.360;2022-12-13T05:44:25;22.80;;;14.43;;
5638;SDS011;2841;44.526;11.360;2022-12-13T05:46:52;11.47;;;6.87;;
5638;SDS011;2841;44.526;11.360;2022-12-13T05:49:19;33.63;;;16.80;;
5638;SDS011;2841;44.526;11.360;2022-12-13T05:51:46;32.47;;;18.47;;
5638;SDS011;2841;44.526;11.360;2022-12-13T05:54:13;31.03;;;17.33;;
5638;SDS011;2841;44.526;11.360;2022-12-13T05:56:40;36.80;;;18.00;;
5638;SDS011;2841;44.526;11.360;2022-12-13T05:59:08;39.03;;;17.80;;
5638;SDS011;2841;44.526;11.360;2022-12-13T06:01:36;34.27;;;17.23;;
5638;SDS011;2841;44.526;11.360;2022-12-13T06:04:03;32.97;;;17.90;;
5638;SDS011;2841;44.526;11.360;2022-12-13T06:06:30;31.50;;;16.17;;
5638;SDS011;2841;44.526;11.360;2022-12-13T06:08:57;41.93;;;18.87;;
5638;SDS011;2841;44.526;11.360;2022-12-13T06:11:24;33.87;;;15.17;;
5638;SDS011;2841;44.526;11.360;2022-12-13T06:13:52;37.70;;;18.17;;
5638;SDS011;2841;44.526;11.360;2022-12-13T06:16:20;30.40;;;15.20;;
5638;SDS011;2841;44.526;11.360;2022-12-13T06:18:47;36.40;;;17.17;;
5638;SDS011;2841;44.526;11.360;2022-12-13T06:21:14;33.33;;;16.63;;
5638;SDS011;2841;44.526;11.360;2022-12-13T06:23:41;27.20;;;15.07;;
5638;SDS011;2841;44.526;11.360;2022-12-13T06:26:09;32.13;;;16.57;;
5638;SDS011;2841;44.526;11.360;2022-12-13T06:28:35;29.90;;;14.37;;
5638;SDS011;2841;44.526;11.360;2022-12-13T06:31:03;26.03;;;15.13;;
5638;SDS011;2841;44.526;11.360;2022-12-13T06:33:32;28.57;;;14.60;;
5638;SDS011;2841;44.526;11.360;2022-12-13T06:36:00;28.63;;;15.53;;
5638;SDS011;2841;44.526;11.360;2022-12-13T06:38:29;31.80;;;15.53;;
5638;SDS011;2841;44.526;11.360;2022-12-13T06:41:04;26.90;;;13.90;;
5638;SDS011;2841;44.526;11.360;2022-12-13T06:43:33;29.57;;;15.43;;
5638;SDS011;2841;44.526;11.360;2022-12-13T06:46:01;32.50;;;15.70;;
5638;SDS011;2841;44.526;11.360;2022-12-13T06:48:29;22.73;;;13.40;;
5638;SDS011;2841;44.526;11.360;2022-12-13T06:50:59;27.60;;;15.63;;
5638;SDS011;2841;44.526;11.360;2022-12-13T06:53:27;34.00;;;15.23;;
5638;SDS011;2841;44.526;11.360;2022-12-13T06:55:55;30.83;;;16.53;;
5638;SDS011;2841;44.526;11.360;2022-12-13T06:58:22;33.10;;;17.73;;
5638;SDS011;2841;44.526;11.360;2022-12-13T07:00:59;30.27;;;14.30;;
5638;SDS011;2841;44.526;11.360;2022-12-13T07:03:27;31.17;;;15.30;;
5638;SDS011;2841;44.526;11.360;2022-12-13T07:05:55;29.30;;;15.93;;
5638;SDS011;2841;44.526;11.360;2022-12-13T07:08:25;24.33;;;15.27;;
5638;SDS011;2841;44.526;11.360;2022-12-13T07:10:52;33.80;;;16.63;;
5638;SDS011;2841;44.526;11.360;2022-12-13T07:13:19;25.83;;;14.80;;
5638;SDS011;2841;44.526;11.360;2022-12-13T07:15:47;29.77;;;16.10;;
5638;SDS011;2841;44.526;11.360;2022-12-13T07:18:14;25.63;;;15.17;;
5638;SDS011;2841;44.526;11.360;2022-12-13T07:20:41;26.33;;;15.37;;
5638;SDS011;2841;44.526;11.360;2022-12-13T07:23:09;34.37;;;18.17;;
5638;SDS011;2841;44.526;11.360;2022-12-13T07:25:38;31.30;;;15.10;;
5638;SDS011;2841;44.526;11.360;2022-12-13T07:28:07;24.40;;;11.67;;
5638;SDS011;2841;44.526;11.360;2022-12-13T07:30:35;29.60;;;15.00;;
5638;SDS011;2841;44.526;11.360;2022-12-13T07:33:04;31.23;;;15.90;;
5638;SDS011;2841;44.526;11.360;2022-12-13T07:35:32;31.27;;;15.70;;
5638;SDS011;2841;44.526;11.360;2022-12-13T07:37:59;33.80;;;16.87;;
5638;SDS011;2841;44.526;11.360;2022-12-13T07:40:26;28.43;;;14.73;;
5638;SDS011;2841;44.526;11.360;2022-12-13T07:42:55;24.73;;;11.63;;
5638;SDS011;2841;44.526;11.360;2022-12-13T07:45:22;35.07;;;15.80;;
5638;SDS011;2841;44.526;11.360;2022-12-13T07:47:49;28.17;;;14.10;;
5638;SDS011;2841;44.526;11.360;2022-12-13T07:50:16;29.97;;;13.70;;
5638;SDS011;2841;44.526;11.360;2022-12-13T07:52:44;26.47;;;14.27;;
5638;SDS011;2841;44.526;11.360;2022-12-13T07:55:11;29.60;;;14.93;;
5638;SDS011;2841;44.526;11.360;2022-12-13T07:57:38;28.40;;;14.90;;
5638;SDS011;2841;44.526;11.360;2022-12-13T08:00:07;29.50;;;16.23;;
5638;SDS011;2841;44.526;11.360;2022-12-13T08:02:35;37.27;;;18.07;;
5638;SDS011;2841;44.526;11.360;2022-12-13T08:05:03;26.67;;;15.70;;
5638;SDS011;2841;44.526;11.360;2022-12-13T08:07:31;39.27;;;16.47;;
5638;SDS011;2841;44.526;11.360;2022-12-13T08:09:58;20.27;;;13.27;;
5638;SDS011;2841;44.526;11.360;2022-12-13T08:12:25;33.13;;;17.40;;
5638;SDS011;2841;44.526;11.360;2022-12-13T08:14:51;38.40;;;17.73;;
5638;SDS011;2841;44.526;11.360;2022-12-13T08:17:20;34.63;;;18.10;;
5638;SDS011;2841;44.526;11.360;2022-12-13T08:19:48;25.83;;;14.50;;
5638;SDS011;2841;44.526;11.360;2022-12-13T08:22:15;30.10;;;13.50;;
5638;SDS011;2841;44.526;11.360;2022-12-13T08:24:42;31.40;;;17.57;;
5638;SDS011;2841;44.526;11.360;2022-12-13T08:27:09;29.70;;;14.50;;
5638;SDS011;2841;44.526;11.360;2022-12-13T08:29:36;39.27;;;18.93;;
5638;SDS011;2841;44.526;11.360;2022-12-13T08:32:04;29.93;;;14.80;;
5638;SDS011;2841;44.526;11.360;2022-12-13T08:34:37;29.37;;;15.70;;
5638;SDS011;2841;44.526;11.360;2022-12-13T08:37:05;25.33;;;12.57;;
5638;SDS011;2841;44.526;11.360;2022-12-13T08:39:33;28.27;;;15.03;;
5638;SDS011;2841;44.526;11.360;2022-12-13T08:42:01;27.10;;;15.90;;
5638;SDS011;2841;44.526;11.360;2022-12-13T08:44:29;28.50;;;15.00;;
5638;SDS011;2841;44.526;11.360;2022-12-13T08:46:56;24.73;;;14.43;;
5638;SDS011;2841;44.526;11.360;2022-12-13T08:49:23;29.80;;;14.57;;
5638;SDS011;2841;44.526;11.360;2022-12-13T08:51:51;29.40;;;15.90;;
5638;SDS011;2841;44.526;11.360;2022-12-13T08:54:18;34.47;;;16.97;;
5638;SDS011;2841;44.526;11.360;2022-12-13T08:56:45;38.40;;;15.53;;
5638;SDS011;2841;44.526;11.360;2022-12-13T08:59:12;29.20;;;14.87;;
5638;SDS011;2841;44.526;11.360;2022-12-13T09:01:39;24.60;;;15.27;;
5638;SDS011;2841;44.526;11.360;2022-12-13T09:04:06;28.30;;;16.20;;
5638;SDS011;2841;44.526;11.360;2022-12-13T09:06:34;29.97;;;15.03;;
5638;SDS011;2841;44.526;11.360;2022-12-13T09:09:02;36.67;;;18.20;;
5638;SDS011;2841;44.526;11.360;2022-12-13T09:11:29;25.30;;;14.70;;
5638;SDS011;2841;44.526;11.360;2022-12-13T09:13:56;25.30;;;14.87;;
5638;SDS011;2841;44.526;11.360;2022-12-13T09:16:24;25.83;;;15.20;;
5638;SDS011;2841;44.526;11.360;2022-12-13T09:18:51;27.43;;;16.87;;
5638;SDS011;2841;44.526;11.360;2022-12-13T09:21:18;30.10;;;17.33;;
5638;SDS011;2841;44.526;11.360;2022-12-13T09:23:45;32.33;;;16.50;;
5638;SDS011;2841;44.526;11.360;2022-12-13T09:26:14;29.70;;;16.13;;
5638;SDS011;2841;44.526;11.360;2022-12-13T09:28:41;29.03;;;16.20;;
5638;SDS011;2841;44.526;11.360;2022-12-13T09:31:10;28.97;;;14.43;;
5638;SDS011;2841;44.526;11.360;2022-12-13T09:33:38;28.00;;;17.03;;
5638;SDS011;2841;44.526;11.360;2022-12-13T09:36:06;30.37;;;15.80;;
5638;SDS011;2841;44.526;11.360;2022-12-13T09:38:35;25.23;;;13.90;;
5638;SDS011;2841;44.526;11.360;2022-12-13T09:41:04;33.20;;;14.60;;
5638;SDS011;2841;44.526;11.360;2022-12-13T09:43:40;23.73;;;11.37;;
5638;SDS011;2841;44.526;11.360;2022-12-13T09:46:11;26.83;;;15.30;;
5638;SDS011;2841;44.526;11.360;2022-12-13T09:48:46;16.70;;;10.43;;
5638;SDS011;2841;44.526;11.360;2022-12-13T09:51:13;18.90;;;10.13;;
5638;SDS011;2841;44.526;11.360;2022-12-13T09:53:40;26.90;;;14.87;;
5638;SDS011;2841;44.526;11.360;2022-12-13T09:56:09;30.47;;;14.97;;
5638;SDS011;2841;44.526;11.360;2022-12-13T09:58:38;22.17;;;13.50;;
5638;SDS011;2841;44.526;11.360;2022-12-13T10:01:06;25.53;;;15.57;;
5638;SDS011;2841;44.526;11.360;2022-12-13T10:03:33;21.90;;;13.00;;
5638;SDS011;2841;44.526;11.360;2022-12-13T10:06:03;28.13;;;14.27;;
5638;SDS011;2841;44.526;11.360;2022-12-13T10:08:39;25.93;;;15.50;;
5638;SDS011;2841;44.526;11.360;2022-12-13T10:11:11;22.93;;;13.00;;
5638;SDS011;2841;44.526;11.360;2022-12-13T10:13:41;30.03;;;15.13;;
5638;SDS011;2841;44.526;11.360;2022-12-13T10:16:12;21.80;;;13.93;;
5638;SDS011;2841;44.526;11.360;2022-12-13T10:18:43;26.93;;;15.37;;
5638;SDS011;2841;44.526;11.360;2022-12-13T10:21:11;29.83;;;15.33;;
5638;SDS011;2841;44.526;11.360;2022-12-13T10:23:43;32.27;;;14.87;;
5638;SDS011;2841;44.526;11.360;2022-12-13T10:26:10;28.33;;;14.40;;
5638;SDS011;2841;44.526;11.360;2022-12-13T10:28:40;31.20;;;14.70;;
5638;SDS011;2841;44.526;11.360;2022-12-13T10:31:08;34.50;;;15.57;;
5638;SDS011;2841;44.526;11.360;2022-12-13T10:33:47;26.40;;;14.37;;
5638;SDS011;2841;44.526;11.360;2022-12-13T10:36:29;23.00;;;12.53;;
5638;SDS011;2841;44.526;11.360;2022-12-13T10:38:58;21.33;;;13.80;;
5638;SDS011;2841;44.526;11.360;2022-12-13T10:41:27;27.47;;;14.80;;
5638;SDS011;2841;44.526;11.360;2022-12-13T10:44:17;28.77;;;16.13;;
5638;SDS011;2841;44.526;11.360;2022-12-13T10:46:47;21.60;;;12.83;;
5638;SDS011;2841;44.526;11.360;2022-12-13T10:49:24;23.00;;;12.90;;
5638;SDS011;2841;44.526;11.360;2022-12-13T10:51:55;21.20;;;13.03;;
5638;SDS011;2841;44.526;11.360;2022-12-13T10:54:26;24.10;;;12.57;;
5638;SDS011;2841;44.526;11.360;2022-12-13T10:56:56;24.70;;;13.10;;
5638;SDS011;2841;44.526;11.360;2022-12-13T10:59:30;23.93;;;12.03;;
5638;SDS011;2841;44.526;11.360;2022-12-13T11:01:59;27.07;;;12.60;;
5638;SDS011;2841;44.526;11.360;2022-12-13T11:04:28;20.03;;;13.63;;
5638;SDS011;2841;44.526;11.360;2022-12-13T11:06:57;26.17;;;12.63;;
5638;SDS011;2841;44.526;11.360;2022-12-13T11:09:27;19.73;;;11.13;;
5638;SDS011;2841;44.526;11.360;2022-12-13T11:11:56;22.53;;;12.67;;
5638;SDS011;2841;44.526;11.360;2022-12-13T11:14:27;25.33;;;12.73;;
5638;SDS011;2841;44.526;11.360;2022-12-13T11:16:58;19.10;;;11.20;;
5638;SDS011;2841;44.526;11.360;2022-12-13T11:19:34;21.00;;;11.60;;
5638;SDS011;2841;44.526;11.360;2022-12-13T11:22:03;22.03;;;11.60;;
5638;SDS011;2841;44.526;11.360;2022-12-13T11:24:34;18.63;;;11.67;;
5638;SDS011;2841;44.526;11.360;2022-12-13T11:27:05;20.07;;;10.60;;
5638;SDS011;2841;44.526;11.360;2022-12-13T11:29:57;19.37;;;10.33;;
5638;SDS011;2841;44.526;11.360;2022-12-13T11:32:36;17.83;;;10.97;;
5638;SDS011;2841;44.526;11.360;2022-12-13T11:35:15;15.57;;;10.40;;
5638;SDS011;2841;44.526;11.360;2022-12-13T11:37:47;17.93;;;9.60;;
5638;SDS011;2841;44.526;11.360;2022-12-13T11:40:24;20.73;;;10.67;;
5638;SDS011;2841;44.526;11.360;2022-12-13T11:42:54;16.10;;;10.10;;
5638;SDS011;2841;44.526;11.360;2022-12-13T11:45:29;16.17;;;11.17;;
5638;SDS011;2841;44.526;11.360;2022-12-13T11:48:01;22.83;;;9.13;;
5638;SDS011;2841;44.526;11.360;2022-12-13T11:50:33;16.57;;;10.03;;
5638;SDS011;2841;44.526;11.360;2022-12-13T11:53:18;21.40;;;11.27;;
5638;SDS011;2841;44.526;11.360;2022-12-13T11:55:48;18.70;;;10.50;;
5638;SDS011;2841;44.526;11.360;2022-12-13T11:58:22;29.67;;;12.37;;
5638;SDS011;2841;44.526;11.360;2022-12-13T12:00:56;21.80;;;10.60;;
5638;SDS011;2841;44.526;11.360;2022-12-13T12:03:32;21.23;;;10.60;;
5638;SDS011;2841;44.526;11.360;2022-12-13T12:06:03;15.93;;;9.10;;
5638;SDS011;2841;44.526;11.360;2022-12-13T12:08:37;18.60;;;10.77;;
5638;SDS011;2841;44.526;11.360;2022-12-13T12:11:11;21.00;;;11.60;;
5638;SDS011;2841;44.526;11.360;2022-12-13T12:13:46;20.47;;;11.17;;
5638;SDS011;2841;44.526;11.360;2022-12-13T12:16:22;18.67;;;10.73;;
5638;SDS011;2841;44.526;11.360;2022-12-13T12:18:55;16.57;;;9.00;;
5638;SDS011;2841;44.526;11.360;2022-12-13T12:21:26;17.63;;;11.47;;
5638;SDS011;2841;44.526;11.360;2022-12-13T12:24:04;18.10;;;10.87;;
5638;SDS011;2841;44.526;11.360;2022-12-13T12:26:45;26.90;;;12.10;;
5638;SDS011;2841;44.526;11.360;2022-12-13T12:29:39;19.30;;;11.57;;
5638;SDS011;2841;44.526;11.360;2022-12-13T12:32:30;23.37;;;12.27;;
5638;SDS011;2841;44.526;11.360;2022-12-13T12:35:06;18.30;;;11.73;;
5638;SDS011;2841;44.526;11.360;2022-12-13T12:37:44;21.90;;;11.70;;
5638;SDS011;2841;44.526;11.360;2022-12-13T12:43:18;24.60;;;11.87;;
5638;SDS011;2841;44.526;11.360;2022-12-13T12:45:57;20.90;;;12.07;;
5638;SDS011;2841;44.526;11.360;2022-12-13T12:48:40;17.23;;;11.40;;
5638;SDS011;2841;44.526;11.360;2022-12-13T12:51:33;24.57;;;11.20;;
5638;SDS011;2841;44.526;11.360;2022-12-13T12:54:16;19.57;;;12.60;;
5638;SDS011;2841;44.526;11.360;2022-12-13T12:56:58;20.03;;;11.63;;
5638;SDS011;2841;44.526;11.360;2022-12-13T12:59:30;25.97;;;12.80;;
5638;SDS011;2841;44.526;11.360;2022-12-13T13:02:05;17.77;;;11.30;;
5638;SDS011;2841;44.526;11.360;2022-12-13T13:04:47;21.37;;;12.10;;
5638;SDS011;2841;44.526;11.360;2022-12-13T13:07:19;22.07;;;13.10;;
5638;SDS011;2841;44.526;11.360;2022-12-13T13:09:49;22.10;;;12.00;;
5638;SDS011;2841;44.526;11.360;2022-12-13T13:12:17;21.47;;;12.67;;
5638;SDS011;2841;44.526;11.360;2022-12-13T13:14:45;20.80;;;10.93;;
5638;SDS011;2841;44.526;11.360;2022-12-13T13:20:18;22.57;;;10.83;;
5638;SDS011;2841;44.526;11.360;2022-12-13T13:22:47;21.73;;;12.60;;
5638;SDS011;2841;44.526;11.360;2022-12-13T13:25:23;16.80;;;10.17;;
5638;SDS011;2841;44.526;11.360;2022-12-13T13:28:00;15.47;;;9.70;;
5638;SDS011;2841;44.526;11.360;2022-12-13T13:30:31;19.73;;;11.00;;
5638;SDS011;2841;44.526;11.360;2022-12-13T13:32:59;16.70;;;10.70;;
5638;SDS011;2841;44.526;11.360;2022-12-13T13:38:26;17.50;;;11.20;;
5638;SDS011;2841;44.526;11.360;2022-12-13T13:41:37;16.70;;;11.10;;
5638;SDS011;2841;44.526;11.360;2022-12-13T13:47:38;23.83;;;11.57;;
5638;SDS011;2841;44.526;11.360;2022-12-13T13:50:27;19.00;;;11.00;;
5638;SDS011;2841;44.526;11.360;2022-12-13T14:08:41;13.90;;;8.97;;
5638;SDS011;2841;44.526;11.360;2022-12-13T14:11:18;22.67;;;10.90;;
5638;SDS011;2841;44.526;11.360;2022-12-13T14:14:14;18.80;;;11.80;;
5638;SDS011;2841;44.526;11.360;2022-12-13T14:20:19;15.60;;;10.17;;
5638;SDS011;2841;44.526;11.360;2022-12-13T14:23:15;18.07;;;11.23;;
5638;SDS011;2841;44.526;11.360;2022-12-13T14:25:59;20.50;;;12.03;;
5638;SDS011;2841;44.526;11.360;2022-12-13T14:28:49;21.13;;;11.27;;
5638;SDS011;2841;44.526;11.360;2022-12-13T14:31:20;14.83;;;9.60;;
5638;SDS011;2841;44.526;11.360;2022-12-13T14:33:50;15.63;;;10.20;;
5638;SDS011;2841;44.526;11.360;2022-12-13T14:36:24;24.13;;;12.00;;
5638;SDS011;2841;44.526;11.360;2022-12-13T14:38:58;28.13;;;10.67;;
5638;SDS011;2841;44.526;11.360;2022-12-13T14:41:26;13.40;;;10.53;;
5638;SDS011;2841;44.526;11.360;2022-12-13T14:43:53;18.93;;;10.87;;
5638;SDS011;2841;44.526;11.360;2022-12-13T14:46:21;22.43;;;9.60;;
5638;SDS011;2841;44.526;11.360;2022-12-13T14:48:49;16.87;;;12.13;;
5638;SDS011;2841;44.526;11.360;2022-12-13T14:51:25;17.50;;;10.70;;
5638;SDS011;2841;44.526;11.360;2022-12-13T14:53:58;42.07;;;10.03;;
5638;SDS011;2841;44.526;11.360;2022-12-13T14:56:26;15.33;;;9.07;;
5638;SDS011;2841;44.526;11.360;2022-12-13T14:58:54;22.13;;;10.20;;
5638;SDS011;2841;44.526;11.360;2022-12-13T15:01:27;26.17;;;9.30;;
5638;SDS011;2841;44.526;11.360;2022-12-13T15:06:44;13.43;;;8.80;;
5638;SDS011;2841;44.526;11.360;2022-12-13T15:09:13;16.87;;;9.13;;
5638;SDS011;2841;44.526;11.360;2022-12-13T15:11:42;12.73;;;6.70;;
5638;SDS011;2841;44.526;11.360;2022-12-13T15:14:12;15.67;;;9.30;;
5638;SDS011;2841;44.526;11.360;2022-12-13T15:16:47;25.20;;;9.53;;
5638;SDS011;2841;44.526;11.360;2022-12-13T15:19:16;16.10;;;9.20;;
5638;SDS011;2841;44.526;11.360;2022-12-13T15:21:52;14.10;;;9.27;;
5638;SDS011;2841;44.526;11.360;2022-12-13T15:24:21;15.40;;;8.80;;
5638;SDS011;2841;44.526;11.360;2022-12-13T15:26:51;12.07;;;8.37;;
5638;SDS011;2841;44.526;11.360;2022-12-13T15:29:20;16.77;;;8.50;;
5638;SDS011;2841;44.526;11.360;2022-12-13T15:31:50;12.50;;;7.67;;
5638;SDS011;2841;44.526;11.360;2022-12-13T15:34:22;18.80;;;10.17;;
5638;SDS011;2841;44.526;11.360;2022-12-13T15:36:59;16.67;;;8.30;;
5638;SDS011;2841;44.526;11.360;2022-12-13T15:39:28;12.30;;;7.80;;
5638;SDS011;2841;44.526;11.360;2022-12-13T15:41:56;14.57;;;7.70;;